Archival Weather

Half Moon Bay

Half Moon Bay, California (KHAF)

Report from: Wednesday, December 6, 2023 5:35 AM PST
Current time: Saturday, February 24, 2024 7:33 AM PST

Current weather – Weather history – Daily summaries
Weather forecast

Present weatherMist
Temperature12.0°C (53.6°F)
Dew point12.0°C (53.6°F)
Winds 3 kts (1.5 m/s, 3.5 mph) Vrb
Winds variableWinds variable
Visibility1 mi. (1.6 km)
Clouds Ceiling: Overcast 200 ft. (61 m)
Altimeter30.03 in.Hg (1017 mB)
Relative humidity100 %
Density altitude-286 ft. (-87 m)
Remarks Fully automated report
Automated weather observing station with precipitation discriminator
Flight conditions Low Instrument Meteorological Conditions
Raw dataKHAF 061335Z AUTO VRB03KT 1SM BR OVC002 12/12 A3003 RMK AO2
An error has occurred. This application may no longer respond until reloaded. Reload 🗙